createdAt,value
2023-05-14T00:00:09.476Z,16.73
2023-05-14T00:01:11.968Z,16.79
2023-05-14T00:02:14.588Z,16.74
2023-05-14T00:03:17.308Z,16.80
2023-05-14T00:04:19.605Z,16.86
2023-05-14T00:05:23.528Z,16.91
2023-05-14T00:06:27.268Z,16.93
2023-05-14T00:07:30.281Z,16.93
2023-05-14T00:08:33.469Z,16.90
2023-05-14T00:09:36.405Z,16.90
2023-05-14T00:10:38.853Z,16.85
2023-05-14T00:11:41.533Z,16.87
2023-05-14T00:12:44.095Z,16.87
2023-05-14T00:13:46.330Z,16.90
2023-05-14T00:14:48.717Z,16.93
2023-05-14T00:15:51.091Z,16.93
2023-05-14T00:16:53.808Z,16.91
2023-05-14T00:17:56.089Z,16.95
2023-05-14T00:18:58.900Z,16.99
2023-05-14T00:20:01.307Z,17.04
2023-05-14T00:21:03.443Z,17.06
2023-05-14T00:22:05.860Z,17.11
2023-05-14T00:23:08.469Z,16.97
2023-05-14T00:24:10.620Z,16.91
2023-05-14T00:25:13.090Z,16.88
2023-05-14T00:26:15.701Z,16.85
2023-05-14T00:27:19.192Z,16.90
2023-05-14T00:28:21.811Z,16.94
2023-05-14T00:29:24.444Z,17.03
2023-05-14T00:30:26.815Z,17.03
2023-05-14T00:31:29.115Z,17.00
2023-05-14T00:32:31.920Z,16.97
2023-05-14T00:33:34.653Z,17.00
2023-05-14T00:34:37.034Z,17.03
2023-05-14T00:35:39.409Z,16.94
2023-05-14T00:36:42.071Z,16.96
2023-05-14T00:37:44.279Z,16.94
2023-05-14T00:38:46.473Z,16.96
2023-05-14T00:39:48.688Z,16.94
2023-05-14T00:40:51.651Z,16.99
2023-05-14T00:41:54.085Z,17.03
2023-05-14T00:42:56.495Z,17.05
2023-05-14T00:43:58.964Z,17.01
2023-05-14T00:45:01.214Z,17.01
2023-05-14T00:46:03.536Z,16.97
2023-05-14T00:47:06.905Z,16.93
2023-05-14T00:48:09.354Z,16.91
2023-05-14T00:49:11.707Z,16.90
2023-05-14T00:50:15.778Z,16.86
2023-05-14T00:51:18.573Z,16.75
2023-05-14T00:52:21.536Z,16.72
2023-05-14T00:53:24.443Z,16.67
2023-05-14T00:54:27.758Z,16.65
2023-05-14T00:55:31.218Z,16.59
2023-05-14T00:56:35.016Z,16.49
2023-05-14T00:57:37.430Z,16.39
2023-05-14T00:58:40.407Z,16.37
2023-05-14T00:59:42.882Z,16.39
2023-05-14T01:00:45.212Z,16.40
2023-05-14T01:01:48.260Z,16.31
2023-05-14T01:02:50.620Z,16.32
2023-05-14T01:03:54.290Z,16.32
2023-05-14T01:04:57.565Z,16.05
2023-05-14T01:06:12.571Z,16.05
2023-05-14T01:07:27.149Z,15.89
2023-05-14T01:09:02.013Z,15.89
2023-05-14T01:10:17.206Z,15.95
2023-05-14T01:11:25.911Z,16.06
2023-05-14T01:12:34.690Z,16.03
2023-05-14T01:13:46.426Z,16.05
2023-05-14T01:15:02.277Z,16.10
2023-05-14T01:16:08.537Z,16.21
2023-05-14T01:17:13.794Z,16.33
2023-05-14T01:18:18.932Z,16.34
2023-05-14T01:19:24.942Z,16.33
2023-05-14T01:20:27.345Z,16.37
2023-05-14T01:21:40.133Z,16.41
2023-05-14T01:22:42.396Z,16.45
2023-05-14T01:23:44.501Z,16.48
2023-05-14T01:24:47.498Z,16.52
2023-05-14T01:25:50.108Z,16.56
2023-05-14T01:26:54.954Z,16.59
2023-05-14T01:28:22.817Z,16.59
2023-05-14T01:29:28.108Z,16.53
2023-05-14T01:30:37.126Z,16.53
2023-05-14T01:31:43.388Z,16.53
2023-05-14T01:32:49.224Z,16.51
2023-05-14T01:33:54.108Z,16.49
2023-05-14T01:34:59.843Z,16.42
2023-05-14T01:36:04.348Z,16.40
2023-05-14T01:37:09.549Z,16.42
2023-05-14T01:38:14.603Z,16.36
2023-05-14T01:39:18.375Z,16.31
2023-05-14T01:40:21.458Z,16.35
2023-05-14T01:41:26.395Z,16.28
2023-05-14T01:42:29.259Z,16.28
2023-05-14T01:43:32.356Z,16.32
2023-05-14T01:44:35.982Z,16.53
2023-05-14T01:45:38.683Z,16.73
2023-05-14T01:46:41.347Z,16.93
2023-05-14T01:47:45.011Z,17.30
2023-05-14T01:48:47.237Z,17.46
2023-05-14T01:49:50.133Z,17.50
2023-05-14T01:50:53.588Z,17.52
2023-05-14T01:51:56.048Z,17.60
2023-05-14T01:52:58.248Z,17.66
2023-05-14T01:54:00.426Z,17.68
2023-05-14T01:55:04.552Z,17.69
2023-05-14T01:56:07.132Z,17.72
2023-05-14T01:57:09.464Z,17.76
2023-05-14T01:58:11.951Z,17.78
2023-05-14T01:59:14.247Z,17.81
2023-05-14T02:00:18.140Z,17.85
2023-05-14T02:01:20.925Z,17.86
2023-05-14T02:02:23.340Z,17.85
2023-05-14T02:03:27.090Z,17.85
2023-05-14T02:04:30.004Z,17.86
2023-05-14T02:05:32.305Z,17.88
2023-05-14T02:06:35.889Z,17.88
2023-05-14T02:07:38.659Z,17.89
2023-05-14T02:08:40.826Z,17.91
2023-05-14T02:09:43.127Z,17.93
2023-05-14T02:10:46.063Z,17.95
2023-05-14T02:11:48.437Z,17.93
2023-05-14T02:12:51.080Z,17.88
2023-05-14T02:13:54.566Z,17.79
2023-05-14T02:14:57.180Z,17.80
2023-05-14T02:15:59.669Z,17.76
2023-05-14T02:17:02.975Z,17.71
2023-05-14T02:18:05.471Z,17.70
2023-05-14T02:19:08.069Z,17.68
2023-05-14T02:20:11.443Z,17.64
2023-05-14T02:21:13.708Z,17.60
2023-05-14T02:22:15.971Z,17.58
2023-05-14T02:23:18.183Z,17.51
2023-05-14T02:24:21.359Z,17.49
2023-05-14T02:25:23.689Z,17.38
2023-05-14T02:26:26.010Z,17.34
2023-05-14T02:27:28.325Z,17.21
2023-05-14T02:28:30.854Z,16.77
2023-05-14T02:29:32.966Z,16.77
2023-05-14T02:30:35.399Z,16.74
2023-05-14T02:31:37.663Z,16.74
2023-05-14T02:32:40.314Z,16.72
2023-05-14T02:33:42.919Z,16.69
2023-05-14T02:34:45.495Z,16.68
2023-05-14T02:35:48.070Z,16.66
2023-05-14T02:36:50.495Z,16.67
2023-05-14T02:37:53.734Z,16.73
2023-05-14T02:38:59.016Z,16.72
2023-05-14T02:40:01.405Z,16.72
2023-05-14T02:41:03.955Z,16.73
2023-05-14T02:42:07.658Z,16.81
2023-05-14T02:43:10.163Z,16.89
2023-05-14T02:44:12.393Z,16.90
2023-05-14T02:45:14.936Z,16.94
2023-05-14T02:46:17.422Z,16.99
2023-05-14T02:47:19.980Z,17.02
2023-05-14T02:48:22.626Z,17.08
2023-05-14T02:49:26.000Z,17.12
2023-05-14T02:50:28.584Z,17.10
2023-05-14T02:51:31.480Z,17.12
2023-05-14T02:52:33.849Z,17.17
2023-05-14T02:53:36.170Z,17.19
2023-05-14T02:54:38.473Z,17.20
2023-05-14T02:55:40.796Z,17.16
2023-05-14T02:56:43.141Z,17.18
2023-05-14T02:57:46.173Z,17.18
2023-05-14T02:58:49.587Z,17.19
2023-05-14T02:59:52.083Z,17.17
2023-05-14T03:00:55.162Z,17.14
2023-05-14T03:01:58.779Z,17.15
2023-05-14T03:03:01.448Z,17.15
2023-05-14T03:04:04.564Z,17.20
2023-05-14T03:05:07.844Z,17.25
2023-05-14T03:06:10.561Z,17.05
2023-05-14T03:07:13.079Z,17.05
2023-05-14T03:08:15.280Z,16.99
2023-05-14T03:09:17.386Z,16.98
2023-05-14T03:10:20.534Z,16.99
2023-05-14T03:11:23.013Z,17.01
2023-05-14T03:12:25.201Z,16.92
2023-05-14T03:13:27.639Z,16.97
2023-05-14T03:14:30.144Z,17.03
2023-05-14T03:15:32.731Z,17.05
2023-05-14T03:16:35.112Z,17.05
2023-05-14T03:17:37.409Z,17.02
2023-05-14T03:18:40.190Z,16.97
2023-05-14T03:19:44.535Z,16.98
2023-05-14T03:20:46.917Z,17.00
2023-05-14T03:21:50.524Z,16.96
2023-05-14T03:22:53.830Z,16.93
2023-05-14T03:23:56.198Z,16.87
2023-05-14T03:24:58.700Z,16.83
2023-05-14T03:26:01.709Z,16.84
2023-05-14T03:27:04.033Z,16.77
2023-05-14T03:28:07.036Z,16.81
2023-05-14T03:29:10.173Z,16.81
2023-05-14T03:30:14.030Z,16.84
2023-05-14T03:31:16.229Z,16.88
2023-05-14T03:32:18.957Z,16.89
2023-05-14T03:33:22.625Z,16.95
2023-05-14T03:34:25.041Z,17.01
2023-05-14T03:35:27.042Z,17.05
2023-05-14T03:36:29.628Z,17.08
2023-05-14T03:37:31.887Z,17.12
2023-05-14T03:38:34.026Z,17.08
2023-05-14T03:39:37.452Z,17.12
2023-05-14T03:40:40.248Z,17.19
2023-05-14T03:41:42.649Z,17.22
2023-05-14T03:42:45.041Z,17.24
2023-05-14T03:43:47.449Z,17.27
2023-05-14T03:44:49.782Z,17.30
2023-05-14T03:45:52.123Z,17.35
2023-05-14T03:46:55.368Z,17.27
2023-05-14T03:47:57.808Z,17.28
2023-05-14T03:49:00.304Z,17.29
2023-05-14T03:50:03.489Z,17.31
2023-05-14T03:51:06.556Z,17.33
2023-05-14T03:52:10.713Z,17.33
2023-05-14T03:53:13.689Z,17.34
2023-05-14T03:54:15.968Z,17.35
2023-05-14T03:55:19.830Z,17.39
2023-05-14T03:56:22.332Z,17.34
2023-05-14T03:57:24.670Z,17.33
2023-05-14T03:58:26.685Z,17.36
2023-05-14T03:59:29.033Z,17.37
2023-05-14T04:00:32.680Z,17.42
2023-05-14T04:01:35.351Z,17.44
2023-05-14T04:02:37.685Z,17.45
2023-05-14T04:03:41.197Z,17.48
2023-05-14T04:04:43.994Z,17.46
2023-05-14T04:05:46.383Z,17.53
2023-05-14T04:06:48.807Z,17.53
2023-05-14T04:07:51.953Z,17.51
2023-05-14T04:08:55.509Z,17.54
2023-05-14T04:09:59.581Z,17.56
2023-05-14T04:11:02.873Z,17.54
2023-05-14T04:12:07.281Z,17.52
2023-05-14T04:13:09.748Z,17.56
2023-05-14T04:14:14.977Z,17.52
2023-05-14T04:15:20.123Z,17.54
2023-05-14T04:16:22.710Z,17.61
2023-05-14T04:17:25.538Z,17.58
2023-05-14T04:18:27.968Z,17.62
2023-05-14T04:19:30.804Z,17.65
2023-05-14T04:20:33.030Z,17.75
2023-05-14T04:21:35.360Z,17.75
2023-05-14T04:22:38.663Z,17.82
2023-05-14T04:23:40.944Z,17.85
2023-05-14T04:24:44.012Z,17.89
2023-05-14T04:25:46.272Z,17.91
2023-05-14T04:26:49.104Z,17.92
2023-05-14T04:27:51.429Z,17.95
2023-05-14T04:28:53.567Z,17.99
2023-05-14T04:29:56.074Z,18.02
2023-05-14T04:30:58.649Z,18.06
2023-05-14T04:32:01.113Z,18.10
2023-05-14T04:33:04.651Z,18.15
2023-05-14T04:34:06.861Z,18.09
2023-05-14T04:35:09.896Z,18.16
2023-05-14T04:36:12.178Z,18.19
2023-05-14T04:37:14.392Z,18.20
2023-05-14T04:38:17.864Z,18.21
2023-05-14T04:39:20.187Z,18.23
2023-05-14T04:40:22.536Z,18.24
2023-05-14T04:41:25.626Z,18.27
2023-05-14T04:42:27.824Z,18.30
2023-05-14T04:43:30.155Z,18.33
2023-05-14T04:44:37.550Z,18.35
2023-05-14T04:45:41.035Z,18.35
2023-05-14T04:46:43.326Z,18.36
2023-05-14T04:47:46.156Z,18.40
2023-05-14T04:48:49.787Z,18.39
2023-05-14T04:49:52.141Z,18.40
2023-05-14T04:50:54.352Z,18.42
2023-05-14T04:51:56.485Z,18.43
2023-05-14T04:52:58.699Z,18.45
2023-05-14T04:54:01.017Z,18.48
2023-05-14T04:55:03.637Z,18.49
2023-05-14T04:56:06.748Z,18.49
2023-05-14T04:57:09.043Z,18.51
2023-05-14T04:58:11.651Z,18.48
2023-05-14T04:59:13.932Z,18.50
2023-05-14T05:00:17.106Z,18.51
2023-05-14T05:01:19.515Z,18.49
2023-05-14T05:02:21.809Z,18.49
2023-05-14T05:03:23.984Z,18.52
2023-05-14T05:04:27.843Z,18.52
2023-05-14T05:05:30.332Z,18.50
2023-05-14T05:06:32.634Z,18.52
2023-05-14T05:07:35.849Z,18.53
2023-05-14T05:08:38.114Z,18.54
2023-05-14T05:09:40.336Z,18.57
2023-05-14T05:10:42.922Z,18.59
2023-05-14T05:11:44.801Z,18.59
2023-05-14T05:12:48.146Z,18.61
2023-05-14T05:13:50.399Z,18.63
2023-05-14T05:14:52.634Z,18.68
2023-05-14T05:15:55.011Z,18.70
2023-05-14T05:16:58.044Z,18.71
2023-05-14T05:18:01.491Z,18.75
2023-05-14T05:19:03.868Z,18.78
2023-05-14T05:20:09.656Z,18.78
2023-05-14T05:21:12.100Z,18.81
2023-05-14T05:22:15.593Z,18.78
2023-05-14T05:23:18.971Z,18.77
2023-05-14T05:24:21.232Z,18.76
2023-05-14T05:25:23.453Z,18.75
2023-05-14T05:26:27.555Z,18.75
2023-05-14T05:27:30.252Z,18.75
2023-05-14T05:28:32.488Z,18.70
2023-05-14T05:29:36.057Z,18.70
2023-05-14T05:30:40.180Z,18.67
2023-05-14T05:31:42.568Z,18.67
2023-05-14T05:32:45.217Z,18.71
2023-05-14T05:33:47.819Z,18.72
2023-05-14T05:34:51.421Z,18.72
2023-05-14T05:35:53.797Z,18.74
2023-05-14T05:36:57.084Z,18.75
2023-05-14T05:38:01.554Z,18.74
2023-05-14T05:39:03.690Z,18.75
2023-05-14T05:40:08.567Z,18.76
2023-05-14T05:41:10.924Z,18.81
2023-05-14T05:42:13.493Z,18.82
2023-05-14T05:43:16.125Z,18.85
2023-05-14T05:44:18.260Z,18.89
2023-05-14T05:45:20.573Z,18.89
2023-05-14T05:46:22.961Z,18.96
2023-05-14T05:47:25.144Z,19.01
2023-05-14T05:48:27.718Z,19.03
2023-05-14T05:49:30.370Z,18.98
2023-05-14T05:50:32.690Z,19.06
2023-05-14T05:51:34.934Z,19.06
2023-05-14T05:52:38.104Z,19.05
2023-05-14T05:53:40.777Z,19.03
2023-05-14T05:54:42.807Z,19.00
2023-05-14T05:55:46.156Z,18.99
2023-05-14T05:56:48.416Z,19.02
2023-05-14T05:57:50.761Z,19.04
2023-05-14T05:58:53.077Z,19.07
2023-05-14T05:59:55.759Z,19.11
2023-05-14T06:00:59.793Z,19.14
2023-05-14T06:02:02.102Z,19.17
2023-05-14T06:03:04.297Z,19.19
2023-05-14T06:04:06.752Z,19.15
2023-05-14T06:05:10.321Z,19.13
2023-05-14T06:06:12.530Z,19.17
2023-05-14T06:07:15.704Z,19.23
2023-05-14T06:08:18.356Z,19.26
2023-05-14T06:09:20.723Z,19.33
2023-05-14T06:10:23.075Z,19.35
2023-05-14T06:11:26.123Z,19.39
2023-05-14T06:12:28.346Z,19.45
2023-05-14T06:13:31.113Z,19.49
2023-05-14T06:14:33.319Z,19.55
2023-05-14T06:15:35.519Z,19.57
2023-05-14T06:16:37.865Z,19.56
2023-05-14T06:17:41.000Z,19.60
2023-05-14T06:18:43.192Z,19.61
2023-05-14T06:19:46.900Z,19.61
2023-05-14T06:20:49.348Z,19.64
2023-05-14T06:21:52.144Z,19.69
2023-05-14T06:22:54.347Z,19.64
2023-05-14T06:23:56.340Z,19.72
2023-05-14T06:24:59.102Z,19.79
2023-05-14T06:26:01.127Z,19.82
2023-05-14T06:27:03.878Z,19.87
2023-05-14T06:28:05.976Z,19.87
2023-05-14T06:29:07.989Z,19.91
2023-05-14T06:30:12.293Z,19.94
2023-05-14T06:31:14.652Z,19.97
2023-05-14T06:32:17.572Z,20.02
2023-05-14T06:33:23.462Z,19.99
2023-05-14T06:34:25.723Z,19.99
2023-05-14T06:35:28.325Z,19.99
2023-05-14T06:36:30.742Z,19.98
2023-05-14T06:37:33.858Z,20.00
2023-05-14T06:38:36.512Z,20.03
2023-05-14T06:39:41.994Z,20.07
2023-05-14T06:40:44.932Z,20.10
2023-05-14T06:41:47.081Z,20.08
2023-05-14T06:42:50.270Z,20.08
2023-05-14T06:43:53.029Z,20.14
2023-05-14T06:44:55.446Z,20.16
2023-05-14T06:45:57.575Z,20.20
2023-05-14T06:46:59.891Z,20.24
2023-05-14T06:48:03.147Z,20.27
2023-05-14T06:49:05.759Z,20.35
2023-05-14T06:50:10.938Z,20.39
2023-05-14T06:51:13.736Z,20.37
2023-05-14T06:52:17.367Z,20.36
2023-05-14T06:53:20.027Z,20.38
2023-05-14T06:54:22.461Z,20.38
2023-05-14T06:55:25.220Z,20.38
2023-05-14T06:56:28.677Z,20.42
2023-05-14T06:57:31.497Z,20.42
2023-05-14T06:58:33.766Z,20.49
2023-05-14T06:59:35.862Z,20.52
2023-05-14T07:00:38.237Z,20.43
2023-05-14T07:01:40.686Z,20.45
2023-05-14T07:02:43.017Z,20.51
2023-05-14T07:03:45.275Z,20.53
2023-05-14T07:04:47.676Z,20.54
2023-05-14T07:05:50.594Z,20.58
2023-05-14T07:06:52.813Z,20.62
2023-05-14T07:07:56.168Z,20.67
2023-05-14T07:08:59.166Z,20.66
2023-05-14T07:10:01.755Z,20.68
2023-05-14T07:11:04.237Z,20.72
2023-05-14T07:12:07.819Z,20.76
2023-05-14T07:13:10.634Z,20.79
2023-05-14T07:14:12.938Z,20.73
2023-05-14T07:15:15.941Z,20.66
2023-05-14T07:16:18.629Z,20.64
2023-05-14T07:17:21.151Z,20.67
2023-05-14T07:18:23.689Z,20.68
2023-05-14T07:19:27.805Z,20.70
2023-05-14T07:20:29.980Z,20.73
2023-05-14T07:21:33.527Z,20.79
2023-05-14T07:22:35.741Z,20.83
2023-05-14T07:23:37.985Z,20.83
2023-05-14T07:24:40.673Z,20.85
2023-05-14T07:25:43.249Z,20.88
2023-05-14T07:26:45.758Z,20.91
2023-05-14T07:27:47.868Z,21.02
2023-05-14T07:28:50.096Z,21.06
2023-05-14T07:29:52.407Z,21.10
2023-05-14T07:30:54.644Z,21.10
2023-05-14T07:31:57.963Z,21.08
2023-05-14T07:33:00.538Z,21.16
2023-05-14T07:34:02.813Z,21.18
2023-05-14T07:35:06.673Z,21.21
2023-05-14T07:36:10.471Z,21.25
2023-05-14T07:37:12.675Z,21.28
2023-05-14T07:38:15.394Z,21.35
2023-05-14T07:39:17.607Z,21.39
2023-05-14T07:40:20.224Z,21.44
2023-05-14T07:41:22.435Z,21.52
2023-05-14T07:42:35.120Z,21.52
2023-05-14T07:43:29.120Z,21.58
2023-05-14T07:44:31.897Z,21.61
2023-05-14T07:45:37.353Z,21.65
2023-05-14T07:46:40.396Z,21.61
2023-05-14T07:47:42.895Z,21.60
2023-05-14T07:48:45.218Z,21.59
2023-05-14T07:49:48.663Z,21.58
2023-05-14T07:50:52.372Z,21.62
2023-05-14T07:51:54.647Z,21.54
2023-05-14T07:52:57.068Z,21.52
2023-05-14T07:54:00.069Z,21.53
2023-05-14T07:55:03.478Z,21.57
2023-05-14T07:56:06.951Z,21.55
2023-05-14T07:57:12.207Z,21.62
2023-05-14T07:58:14.451Z,21.63
2023-05-14T07:59:17.484Z,21.64
2023-05-14T08:00:19.733Z,21.61
2023-05-14T08:01:22.142Z,21.66
2023-05-14T08:02:24.296Z,21.74
2023-05-14T08:03:26.757Z,21.74
2023-05-14T08:04:29.273Z,21.74
2023-05-14T08:05:32.360Z,21.74
2023-05-14T08:06:34.932Z,21.78
2023-05-14T08:07:37.261Z,21.78
2023-05-14T08:08:39.475Z,21.79
2023-05-14T08:09:41.777Z,21.76
2023-05-14T08:10:44.027Z,21.78
2023-05-14T08:11:46.370Z,21.81
2023-05-14T08:12:48.628Z,21.90
2023-05-14T08:13:51.892Z,21.93
2023-05-14T08:14:55.172Z,21.94
2023-05-14T08:15:57.777Z,21.95
2023-05-14T08:17:00.256Z,21.99
2023-05-14T08:18:03.287Z,22.06
2023-05-14T08:19:05.774Z,22.13
2023-05-14T08:20:11.646Z,22.21
2023-05-14T08:21:14.384Z,22.22
2023-05-14T08:22:16.822Z,22.24
2023-05-14T08:23:19.215Z,22.30
2023-05-14T08:24:22.461Z,22.38
2023-05-14T08:25:24.923Z,22.46
2023-05-14T08:26:27.225Z,22.48
2023-05-14T08:27:29.449Z,22.40
2023-05-14T08:28:31.866Z,22.37
2023-05-14T08:29:35.263Z,22.42
2023-05-14T08:30:37.688Z,22.46
2023-05-14T08:31:40.991Z,22.32
2023-05-14T08:32:43.459Z,22.27
2023-05-14T08:33:46.762Z,22.31
2023-05-14T08:34:49.035Z,22.34
2023-05-14T08:35:54.222Z,22.40
2023-05-14T08:36:56.603Z,22.49
2023-05-14T08:37:58.834Z,22.52
2023-05-14T08:39:00.853Z,22.57
2023-05-14T08:40:03.232Z,22.55
2023-05-14T08:41:06.178Z,22.54
2023-05-14T08:42:12.407Z,22.49
2023-05-14T08:43:18.562Z,22.43
2023-05-14T08:44:26.948Z,22.43
2023-05-14T08:45:34.038Z,22.42
2023-05-14T08:46:38.288Z,22.43
2023-05-14T08:47:41.135Z,22.40
2023-05-14T08:48:47.638Z,22.49
2023-05-14T08:49:56.474Z,22.52
2023-05-14T08:50:59.495Z,22.59
2023-05-14T08:52:02.176Z,22.65
2023-05-14T08:53:04.659Z,22.73
2023-05-14T08:54:07.107Z,22.77
2023-05-14T08:55:11.452Z,22.83
2023-05-14T08:56:17.935Z,22.88
2023-05-14T08:57:22.495Z,22.89
2023-05-14T08:58:26.131Z,22.83
2023-05-14T08:59:28.322Z,22.85
2023-05-14T09:00:31.660Z,22.94
2023-05-14T09:01:35.367Z,23.01
2023-05-14T09:02:39.869Z,23.08
2023-05-14T09:03:43.281Z,23.14
2023-05-14T09:04:47.221Z,23.11
2023-05-14T09:05:51.654Z,23.09
2023-05-14T09:06:55.270Z,23.12
2023-05-14T09:07:57.568Z,23.21
2023-05-14T09:09:00.053Z,23.27
2023-05-14T09:10:03.294Z,23.32
2023-05-14T09:11:09.459Z,23.32
2023-05-14T09:12:12.755Z,23.30
2023-05-14T09:13:15.744Z,23.34
2023-05-14T09:14:18.937Z,23.39
2023-05-14T09:15:23.749Z,23.24
2023-05-14T09:16:26.500Z,23.39
2023-05-14T09:17:29.028Z,23.13
2023-05-14T09:18:31.401Z,23.19
2023-05-14T09:19:33.873Z,23.26
2023-05-14T09:20:36.371Z,23.40
2023-05-14T09:21:39.774Z,23.57
2023-05-14T09:22:42.439Z,23.57
2023-05-14T09:23:53.321Z,23.62
2023-05-14T09:26:17.615Z,23.59
2023-05-14T09:27:21.135Z,23.40
2023-05-14T09:28:25.884Z,23.40
2023-05-14T09:29:29.258Z,23.27
2023-05-14T09:30:33.846Z,23.21
2023-05-14T09:31:36.795Z,23.06
2023-05-14T09:32:43.272Z,23.06
2023-05-14T09:33:51.037Z,23.12
2023-05-14T09:34:53.833Z,23.17
2023-05-14T09:35:59.821Z,23.14
2023-05-14T09:37:06.835Z,23.12
2023-05-14T09:38:09.189Z,22.98
2023-05-14T09:39:12.421Z,23.12
2023-05-14T09:40:36.761Z,23.21
2023-05-14T09:41:40.306Z,23.13
2023-05-14T09:42:42.618Z,22.98
2023-05-14T09:43:45.243Z,23.12
2023-05-14T09:44:52.666Z,23.20
2023-05-14T09:45:55.482Z,23.20
2023-05-14T09:47:08.847Z,23.34
2023-05-14T09:48:17.676Z,23.41
2023-05-14T09:49:22.209Z,23.41
2023-05-14T09:50:27.727Z,23.53
2023-05-14T09:51:34.377Z,23.59
2023-05-14T09:52:39.059Z,23.49
2023-05-14T09:53:46.599Z,23.25
2023-05-14T09:54:52.521Z,22.98
2023-05-14T09:55:55.428Z,22.85
2023-05-14T09:56:58.062Z,22.93
2023-05-14T09:58:00.727Z,23.03
2023-05-14T09:59:03.596Z,23.08
2023-05-14T10:00:08.295Z,23.11
2023-05-14T10:01:12.445Z,23.03
2023-05-14T10:02:24.693Z,22.85
2023-05-14T10:03:30.728Z,22.81
2023-05-14T10:04:34.885Z,22.85
2023-05-14T10:05:39.080Z,22.86
2023-05-14T10:06:44.705Z,22.87
2023-05-14T10:07:49.177Z,22.89
2023-05-14T10:08:54.866Z,22.85
2023-05-14T10:10:00.711Z,22.81
2023-05-14T10:11:09.851Z,22.84
2023-05-14T10:12:15.330Z,22.86
2023-05-14T10:13:21.147Z,22.93
2023-05-14T10:14:36.017Z,22.91
2023-05-14T10:15:42.425Z,22.94
2023-05-14T10:16:50.677Z,22.88
2023-05-14T10:17:55.774Z,22.99
2023-05-14T10:19:02.489Z,23.06
2023-05-14T10:20:09.244Z,22.96
2023-05-14T10:21:14.903Z,23.07
2023-05-14T10:22:20.894Z,22.96
2023-05-14T10:23:23.546Z,22.94
2023-05-14T10:24:27.973Z,23.09
2023-05-14T10:25:30.668Z,23.18
2023-05-14T10:26:38.136Z,23.31
2023-05-14T10:27:41.861Z,23.45
2023-05-14T10:28:45.110Z,23.51
2023-05-14T10:29:55.508Z,23.59
2023-05-14T10:31:00.268Z,23.67
2023-05-14T10:32:08.764Z,23.71
2023-05-14T10:33:16.205Z,23.75
2023-05-14T10:36:06.407Z,24.14
2023-05-14T10:37:11.478Z,23.79
2023-05-14T10:38:14.714Z,23.83
2023-05-14T10:39:16.990Z,23.75
2023-05-14T10:40:22.199Z,23.82
2023-05-14T10:41:25.177Z,23.76
2023-05-14T10:42:38.467Z,23.80
2023-05-14T10:43:42.277Z,23.69
2023-05-14T10:44:51.037Z,23.43
2023-05-14T10:45:53.832Z,23.33
2023-05-14T10:46:56.533Z,23.34
2023-05-14T10:47:59.029Z,23.53
2023-05-14T10:49:01.834Z,23.64
2023-05-14T10:50:06.918Z,23.78
2023-05-14T10:51:10.840Z,23.98
2023-05-14T10:52:14.996Z,24.20
2023-05-14T10:53:18.162Z,24.46
2023-05-14T10:54:23.648Z,24.51
2023-05-14T10:55:26.278Z,24.69
2023-05-14T10:56:29.450Z,24.88
2023-05-14T10:57:33.512Z,24.82
2023-05-14T10:58:38.125Z,25.01
2023-05-14T10:59:43.767Z,25.01
2023-05-14T11:00:48.331Z,25.14
2023-05-14T11:01:50.662Z,25.26
2023-05-14T11:02:56.977Z,25.49
2023-05-14T11:04:00.674Z,25.67
2023-05-14T11:05:08.029Z,25.76
2023-05-14T11:06:14.070Z,25.71
2023-05-14T11:07:18.101Z,25.77
2023-05-14T11:08:25.522Z,25.98
2023-05-14T11:09:26.094Z,26.17
2023-05-14T11:10:29.631Z,26.37
2023-05-14T11:11:32.789Z,26.51
2023-05-14T11:12:37.740Z,26.62
2023-05-14T11:13:43.056Z,26.70
2023-05-14T11:14:46.604Z,26.83
2023-05-14T11:15:50.258Z,27.01
2023-05-14T11:16:52.703Z,27.18
2023-05-14T11:17:56.076Z,27.44
2023-05-14T11:19:03.927Z,27.44
2023-05-14T11:20:08.385Z,27.42
2023-05-14T11:21:10.744Z,26.91
2023-05-14T11:22:14.050Z,26.45
2023-05-14T11:23:16.519Z,26.44
2023-05-14T11:24:18.902Z,26.56
2023-05-14T11:25:22.339Z,26.72
2023-05-14T11:26:25.533Z,27.04
2023-05-14T11:27:28.191Z,27.31
2023-05-14T11:28:30.533Z,27.57
2023-05-14T11:29:32.751Z,27.84
2023-05-14T11:30:35.368Z,28.09
2023-05-14T11:31:38.319Z,28.16
2023-05-14T11:32:40.839Z,28.08
2023-05-14T11:33:43.819Z,27.89
2023-05-14T11:34:46.395Z,27.78
2023-05-14T11:35:49.085Z,27.64
2023-05-14T11:36:51.521Z,27.57
2023-05-14T11:37:54.237Z,27.48
2023-05-14T11:38:57.631Z,27.05
2023-05-14T11:40:01.374Z,27.19
2023-05-14T11:41:05.126Z,27.29
2023-05-14T11:42:14.075Z,27.11
2023-05-14T11:43:16.880Z,26.89
2023-05-14T11:44:19.259Z,26.50
2023-05-14T11:45:26.253Z,26.27
2023-05-14T11:46:30.246Z,26.21
2023-05-14T11:47:32.674Z,26.14
2023-05-14T11:48:35.655Z,26.16
2023-05-14T11:49:38.362Z,26.01
2023-05-14T11:50:43.927Z,25.92
2023-05-14T11:51:46.164Z,25.67
2023-05-14T11:52:50.551Z,25.56
2023-05-14T11:53:54.070Z,25.43
2023-05-14T11:54:56.494Z,25.40
2023-05-14T11:55:58.828Z,25.27
2023-05-14T11:57:04.352Z,25.06
2023-05-14T11:58:06.618Z,25.03
2023-05-14T11:59:11.234Z,24.63
2023-05-14T12:00:16.827Z,24.42
2023-05-14T12:01:19.594Z,24.40
2023-05-14T12:02:22.506Z,24.44
2023-05-14T12:03:27.003Z,24.45
2023-05-14T12:04:32.216Z,24.50
2023-05-14T12:05:39.701Z,24.50
2023-05-14T12:06:42.963Z,24.54
2023-05-14T12:07:45.827Z,24.52
2023-05-14T12:08:49.703Z,24.47
2023-05-14T12:09:52.074Z,24.42
2023-05-14T12:10:55.685Z,24.34
2023-05-14T12:11:59.728Z,24.43
2023-05-14T12:13:05.507Z,24.30
2023-05-14T12:15:23.415Z,24.19
2023-05-14T12:16:31.967Z,24.13
2023-05-14T12:17:34.229Z,24.19
2023-05-14T12:18:37.014Z,24.29
2023-05-14T12:19:42.267Z,24.39
2023-05-14T12:20:48.727Z,24.37
2023-05-14T12:21:51.096Z,24.50
2023-05-14T12:22:53.914Z,24.42
2023-05-14T12:24:01.625Z,24.52
2023-05-14T12:25:08.328Z,24.66
2023-05-14T12:26:12.187Z,24.54
2023-05-14T12:27:14.683Z,24.63
2023-05-14T12:28:18.208Z,24.54
2023-05-14T12:29:22.193Z,24.61
2023-05-14T12:30:24.576Z,24.80
2023-05-14T12:31:33.284Z,24.92
2023-05-14T12:32:41.103Z,24.71
2023-05-14T12:33:45.129Z,24.75
2023-05-14T12:34:47.092Z,24.90
2023-05-14T12:35:53.329Z,25.02
2023-05-14T12:36:56.282Z,25.17
2023-05-14T12:37:58.574Z,25.32
2023-05-14T12:39:03.199Z,25.45
2023-05-14T12:40:08.778Z,25.58
2023-05-14T12:41:11.212Z,25.79
2023-05-14T12:42:15.668Z,25.97
2023-05-14T12:43:18.190Z,26.11
2023-05-14T12:44:22.304Z,26.24
2023-05-14T12:45:26.175Z,26.34
2023-05-14T12:46:29.000Z,26.44
2023-05-14T12:47:31.819Z,26.51
2023-05-14T12:48:33.978Z,26.53
2023-05-14T12:49:40.247Z,26.56
2023-05-14T12:50:42.408Z,26.29
2023-05-14T12:51:46.320Z,26.08
2023-05-14T12:52:48.475Z,25.92
2023-05-14T12:53:51.585Z,26.02
2023-05-14T12:54:53.818Z,26.12
2023-05-14T12:55:56.137Z,26.14
2023-05-14T12:56:58.946Z,26.24
2023-05-14T12:58:01.606Z,26.52
2023-05-14T12:59:04.932Z,27.04
2023-05-14T13:00:14.203Z,27.04
2023-05-14T13:01:17.785Z,27.26
2023-05-14T13:02:22.148Z,27.55
2023-05-14T13:03:24.725Z,27.61
2023-05-14T13:04:27.133Z,27.77
2023-05-14T13:05:29.555Z,27.85
2023-05-14T13:06:32.399Z,27.83
2023-05-14T13:07:36.521Z,27.69
2023-05-14T13:08:39.427Z,27.57
2023-05-14T13:09:43.566Z,27.59
2023-05-14T13:10:46.433Z,27.74
2023-05-14T13:11:49.031Z,27.79
2023-05-14T13:12:52.048Z,27.84
2023-05-14T13:13:54.779Z,27.80
2023-05-14T13:14:57.134Z,27.64
2023-05-14T13:16:00.832Z,27.60
2023-05-14T13:17:04.919Z,27.49
2023-05-14T13:18:08.615Z,27.65
2023-05-14T13:19:11.255Z,27.62
2023-05-14T13:20:15.940Z,27.64
2023-05-14T13:21:18.671Z,27.59
2023-05-14T13:22:21.105Z,27.63
2023-05-14T13:23:25.862Z,27.64
2023-05-14T13:24:29.666Z,27.68
2023-05-14T13:25:32.640Z,27.84
2023-05-14T13:26:36.009Z,27.96
2023-05-14T13:27:38.322Z,27.98
2023-05-14T13:28:40.624Z,27.72
2023-05-14T13:29:43.312Z,27.42
2023-05-14T13:30:49.224Z,27.18
2023-05-14T13:31:52.392Z,26.85
2023-05-14T13:32:54.596Z,26.60
2023-05-14T13:33:59.667Z,26.55
2023-05-14T13:35:05.245Z,26.51
2023-05-14T13:36:08.895Z,26.19
2023-05-14T13:37:11.489Z,25.89
2023-05-14T13:38:15.029Z,25.78
2023-05-14T13:39:19.668Z,25.55
2023-05-14T13:40:22.113Z,25.19
2023-05-14T13:41:25.878Z,25.03
2023-05-14T13:42:28.250Z,25.00